Walnut Grove, Texas
Current Conditions -  °F | °C
As of 10:35 AM on Friday 31 Oct 2014 (Local Time) from KJSO Reporting Station
Clear Clear  
Wind Chill: 63°   Ceiling: Unl
Heat Index: 63°   Visibility: 10mi
Dew Point: 45°   Wind: 6mph
Humidity: 51%   Direction: 350°N
Pressure: 30.25"   Gusts: NA
Location:  32.0774°N, 95.1103°W
Report Text: KJSO 311535Z AUTO 35005KT 10SM CLR 17/07 A3025 RMK AO2 T01720071
Loading
Personal Weather Stations






























Interactive Weather Map
Tropical Storm Tracking
New forecast layout! Learn more

10-Day Weather Forecast

Advertisements
Track Severe Weather on mobile